SLLP/LPB METAR and TAF weather

Enter ICAO airport designator
Station Type Date Time Source
SLLP METAR 2022/01/27 23:00 UTC NOAA

SLLP 272300Z VRB02KT 9999 FEW015 FEW017CB BKN200 09/05 Q1035


Station Type Date Time Source
SLLP Decoded METAR 2022/01/27 23:00 UTC NOAA

La Paz / Alto, Bolivia (SLLP) 16-31S 068-11W 4038M
Jan 27, 2022 - 06:00 PM EST / 2022.01.27 2300 UTC
Wind: Variable at 2 MPH (2 KT):0
Visibility: greater than 7 mile(s):0
Sky conditions: mostly cloudy
Weather: Cumulonimbus clouds observed
Temperature: 48 F (9 C)
Dew Point: 41 F (5 C)
Relative Humidity: 75%
Pressure (altimeter): 30.56 in. Hg (1035 hPa)
ob: SLLP 272300Z VRB02KT 9999 FEW015 FEW017CB BKN200 09/05 Q1035
cycle: 23

Station Type Date Time Source
SLLP TAF 2022/01/27 18:55 UTC NOAA

TAF SLLP 271600Z 2718/2818 16010KT 9999 SCT017 FEW020CB BKN070 TX12/2719Z TN05/2810Z
TEMPO 2719/2722 TSRA
BECMG 2723/2802 08006KT 3000E BCFG FEW003 BKN010
TEMPO 2807/2811 5000 SHRA FEW017CB BKN070
BECMG 2812/2816 14010KT 9999 NSW SCT015

Example: see airport list